Time;durP1;ratioP1;P1;durP2;ratioP2;P2;SDS_P1;SDS_P2;PMS_P1;PMS_P2;Temp;Humidity;BMP_temperature;BMP_pressure;BME280_temperature;BME280_humidity;BME280_pressure;Samples;Min_cycle;Max_cycle;Signal;HPM_P1;HPM_P2
2023/04/10 06:27:49;;;;;;;9.57;6.45;;;;;;;11.33;52.44;101034.84;4911241;29;20052;-91
2023/04/10 06:30:17;;;;;;;10.40;6.80;;;;;;;11.30;52.74;101058.53;4925647;29;20454;-89
2023/04/10 06:33:15;;;;;;;11.73;6.95;;;;;;;11.23;52.38;101028.69;4902367;29;20051;-92
2023/04/10 06:35:51;;;;;;;12.07;7.57;;;;;;;11.27;51.84;101021.16;4936598;29;20525;-94
2023/04/10 06:38:41;;;;;;;10.30;6.90;;;;;;;11.44;51.70;101028.34;4920760;29;20052;-91
2023/04/10 06:47:35;;;;;;;9.98;6.22;;;;;;;11.94;50.40;101065.41;4899543;29;20044;-89
2023/04/10 06:50:20;;;;;;;10.88;6.65;;;;;;;11.92;49.59;101043.16;4905523;29;20489;-89
2023/04/10 06:52:52;;;;;;;9.35;6.43;;;;;;;11.95;49.22;101023.97;4866616;29;20048;-87
2023/04/10 06:55:19;;;;;;;11.63;6.35;;;;;;;12.10;48.92;101031.44;4902655;29;20070;-86
2023/04/10 06:57:55;;;;;;;9.20;6.53;;;;;;;12.29;48.36;101052.75;4905801;29;20485;-90
2023/04/10 07:00:39;;;;;;;11.00;6.68;;;;;;;12.30;48.98;101069.78;4903188;29;20042;-92
2023/04/10 07:03:09;;;;;;;11.07;7.20;;;;;;;12.30;48.81;101037.44;4913287;29;20450;-87
2023/04/10 07:05:38;;;;;;;9.85;6.75;;;;;;;12.44;48.34;101061.91;4925529;29;20166;-89
2023/04/10 07:08:07;;;;;;;12.23;6.97;;;;;;;12.31;48.49;101033.72;4905513;29;20051;-91
2023/04/10 07:11:15;;;;;;;11.30;7.15;;;;;;;12.76;47.89;101037.88;4916965;29;20036;-92
2023/04/10 07:13:41;;;;;;;9.98;6.63;;;;;;;12.76;47.49;101038.75;4976997;23;20048;-89
2023/04/10 07:16:15;;;;;;;;;;;;;;;13.07;47.59;101065.09;4899269;29;20055;-92
2023/04/10 07:18:48;;;;;;;11.25;6.68;;;;;;;13.14;47.31;101019.38;4931026;29;19964;-90
2023/04/10 07:21:18;;;;;;;12.68;6.85;;;;;;;13.61;46.40;101065.44;4921190;29;20098;-87
2023/04/10 07:23:49;;;;;;;11.07;6.68;;;;;;;13.86;47.47;101041.06;4912536;29;20503;-90
2023/04/10 07:26:15;;;;;;;11.13;7.10;;;;;;;14.12;47.52;101036.25;4932592;29;20126;-87
2023/04/10 07:28:43;;;;;;;13.05;7.13;;;;;;;14.25;45.07;101040.25;4913973;29;20046;-90
2023/04/10 07:31:10;;;;;;;12.27;7.20;;;;;;;14.67;44.11;101037.19;4898519;29;20361;-81
2023/04/10 07:33:36;;;;;;;9.40;7.25;;;;;;;15.06;43.82;101049.78;4922712;29;20047;-82
2023/04/10 07:36:04;;;;;;;11.20;7.10;;;;;;;15.44;43.08;101063.34;4914242;29;20046;-82
2023/04/10 07:38:31;;;;;;;10.82;6.35;;;;;;;15.37;42.25;101057.81;4932955;29;20043;-85
2023/04/10 07:40:57;;;;;;;9.85;6.47;;;;;;;15.67;41.89;101057.88;4917077;29;20126;-86
2023/04/10 07:43:22;;;;;;;;;;;;;;;15.56;42.16;101056.44;4884081;29;20067;-83
2023/04/10 07:45:48;;;;;;;10.93;6.45;;;;;;;15.55;42.00;101049.34;4925901;29;19934;-82
2023/04/10 07:48:13;;;;;;;;;;;;;;;15.82;41.97;101047.06;4896986;29;20043;-83
2023/04/10 07:50:42;;;;;;;14.30;6.67;;;;;;;16.14;41.49;101051.28;4920636;29;19922;-83
2023/04/10 07:53:08;;;;;;;8.80;6.32;;;;;;;16.19;41.21;101046.13;4915864;29;20322;-84
2023/04/10 07:56:12;;;;;;;9.35;6.30;;;;;;;15.98;41.71;101049.59;4895009;29;20130;-84
2023/04/10 07:58:41;;;;;;;11.10;6.68;;;;;;;15.91;41.78;101045.13;4918378;29;20055;-82
2023/04/10 08:01:06;;;;;;;10.25;6.65;;;;;;;15.97;41.56;101031.66;4911852;29;20140;-82
2023/04/10 08:03:45;;;;;;;14.43;6.93;;;;;;;15.93;41.86;101040.38;4920277;29;20055;-85
2023/04/10 08:06:11;;;;;;;9.30;6.60;;;;;;;15.73;42.44;101019.25;4936762;29;20039;-86
2023/04/10 08:08:38;;;;;;;15.63;6.55;;;;;;;15.94;42.31;101025.75;4921614;29;20224;-86
2023/04/10 08:11:28;;;;;;;10.15;6.25;;;;;;;16.10;41.77;101008.47;4941787;29;20134;-85
2023/04/10 08:14:00;;;;;;;13.07;6.13;;;;;;;15.89;42.53;101028.19;4910690;29;20054;-85
2023/04/10 08:16:28;;;;;;;12.63;5.80;;;;;;;15.57;43.14;101019.38;4918439;29;20126;-85
2023/04/10 08:18:56;;;;;;;8.32;5.38;;;;;;;15.49;43.47;101022.16;4910421;29;20051;-84
2023/04/10 08:21:24;;;;;;;9.02;5.43;;;;;;;15.69;42.84;101004.34;4936388;29;20187;-89
2023/04/10 08:23:50;;;;;;;8.25;5.50;;;;;;;15.71;42.61;101012.28;4884337;29;20051;-88
2023/04/10 08:26:16;;;;;;;10.45;5.80;;;;;;;15.93;42.68;101022.22;4897076;29;20048;-85
2023/04/10 08:28:46;;;;;;;;;;;;;;;15.85;43.08;101021.47;4927137;29;20074;-84
2023/04/10 08:31:12;;;;;;;8.27;6.00;;;;;;;16.02;42.96;101018.38;4932429;29;20006;-86
2023/04/10 08:33:39;;;;;;;9.88;6.35;;;;;;;15.88;43.34;101011.09;4930945;29;20539;-85
2023/04/10 08:36:07;;;;;;;10.63;6.45;;;;;;;15.65;43.93;101022.00;4917611;29;20040;-85
2023/04/10 08:38:34;;;;;;;11.95;7.18;;;;;;;15.52;44.42;101017.22;4909247;29;20079;-86
2023/04/10 08:41:01;;;;;;;10.52;7.35;;;;;;;15.47;44.46;101008.78;4929914;29;20058;-87
2023/04/10 08:43:27;;;;;;;10.35;7.30;;;;;;;15.48;44.38;101015.06;4913404;29;20532;-89
2023/04/10 08:45:58;;;;;;;10.18;7.38;;;;;;;15.29;45.23;101006.44;4910433;29;20075;-88
2023/04/10 08:48:25;;;;;;;13.48;6.95;;;;;;;15.67;44.40;101009.09;4929848;29;20529;-88
2023/04/10 08:50:52;;;;;;;14.65;7.10;;;;;;;15.38;45.24;100999.91;4893995;29;20044;-87
2023/04/10 08:53:17;;;;;;;10.75;7.25;;;;;;;15.19;45.73;100990.44;4924005;29;20039;-89
2023/04/10 08:55:44;;;;;;;12.73;7.43;;;;;;;15.41;45.59;100998.69;4914780;29;20075;-86
2023/04/10 08:58:14;;;;;;;13.98;8.77;;;;;;;15.39;46.00;100990.75;4931850;29;20070;-87
2023/04/10 09:00:40;;;;;;;12.60;9.07;;;;;;;15.46;46.06;100995.44;4915020;29;20044;-86
2023/04/10 09:03:10;;;;;;;11.60;7.28;;;;;;;15.55;46.16;100995.16;4885387;29;20182;-85
2023/04/10 09:05:36;;;;;;;8.52;6.20;;;;;;;15.32;45.62;100965.41;4898030;29;20044;-85
2023/04/10 09:08:04;;;;;;;8.93;6.20;;;;;;;15.20;45.89;100980.44;4897092;29;20158;-85
2023/04/10 09:10:31;;;;;;;10.20;6.32;;;;;;;15.37;45.93;100971.13;4908124;29;20055;-86
2023/04/10 09:12:58;;;;;;;10.52;6.20;;;;;;;15.36;45.98;100969.44;4925868;29;20044;-86
2023/04/10 09:15:24;;;;;;;14.80;7.07;;;;;;;15.26;46.60;100963.44;4935239;29;20051;-88
2023/04/10 09:17:59;;;;;;;12.50;7.85;;;;;;;15.50;46.50;100964.22;4886738;29;20051;-87
2023/04/10 09:20:25;;;;;;;23.95;15.82;;;;;;;15.71;46.39;100972.50;4889294;29;20051;-83
2023/04/10 09:22:53;;;;;;;19.27;8.30;;;;;;;15.50;47.22;100965.06;4917651;29;20373;-85
2023/04/10 09:25:52;;;;;;;14.73;8.27;;;;;;;15.48;47.30;100959.00;4927918;29;20039;-85
2023/04/10 09:28:18;;;;;;;11.35;8.18;;;;;;;15.36;47.67;100945.06;4903995;29;20043;-85
2023/04/10 09:30:44;;;;;;;12.35;7.72;;;;;;;15.63;47.35;100964.41;4922918;29;20055;-86
2023/04/10 09:33:36;;;;;;;12.23;8.13;;;;;;;15.55;47.97;100959.09;4939484;29;20046;-88
2023/04/10 09:36:03;;;;;;;13.98;8.23;;;;;;;15.34;48.78;100939.00;4916585;29;20036;-85
2023/04/10 09:38:33;;;;;;;13.05;8.05;;;;;;;15.32;48.78;100946.47;4912803;29;20523;-87
2023/04/10 09:41:07;;;;;;;16.55;7.70;;;;;;;15.20;49.51;100942.53;4902039;29;20110;-88
2023/04/10 09:43:34;;;;;;;10.60;7.10;;;;;;;15.15;49.43;100940.38;4911719;29;20047;-84
2023/04/10 09:46:00;;;;;;;10.18;7.38;;;;;;;15.31;49.30;100942.09;4915899;29;20040;-83
2023/04/10 09:48:28;;;;;;;10.10;7.28;;;;;;;15.34;48.93;100920.03;4918952;29;20491;-84
2023/04/10 09:50:55;;;;;;;10.10;6.65;;;;;;;15.45;48.81;100942.25;4897405;29;20051;-86
2023/04/10 09:53:23;;;;;;;11.43;6.88;;;;;;;15.34;49.44;100947.13;4928136;29;20138;-88
2023/04/10 09:55:49;;;;;;;11.48;7.15;;;;;;;15.36;49.66;100946.94;4932242;29;20044;-88
2023/04/10 09:58:15;;;;;;;10.68;6.95;;;;;;;15.65;48.52;100946.09;4932123;29;20058;-84
2023/04/10 10:00:40;;;;;;;;;;;;;;;15.77;47.97;100941.91;4950382;29;20035;-82
2023/04/10 10:03:09;;;;;;;10.70;5.55;;;;;;;15.47;47.83;100927.50;4934665;29;19926;-84
2023/04/10 10:05:59;;;;;;;7.70;5.30;;;;;;;15.26;48.42;100943.66;4930243;29;20489;-85
2023/04/10 10:08:26;;;;;;;9.38;5.57;;;;;;;15.06;48.89;100935.22;4918590;29;20381;-84
2023/04/10 10:10:58;;;;;;;9.07;5.70;;;;;;;15.16;48.81;100933.91;4905188;29;20090;-84
2023/04/10 10:13:35;;;;;;;9.20;5.70;;;;;;;14.72;50.18;100928.41;4898146;29;20392;-83
2023/04/10 10:16:25;;;;;;;8.35;5.57;;;;;;;14.95;49.32;100921.09;4910372;29;20077;-84
2023/04/10 10:19:14;;;;;;;8.90;5.60;;;;;;;15.07;49.15;100926.06;4933538;29;20448;-81
2023/04/10 10:21:42;;;;;;;8.85;5.68;;;;;;;14.98;49.01;100907.19;4922004;29;20104;-85
2023/04/10 10:24:08;;;;;;;8.80;5.22;;;;;;;14.79;49.53;100907.69;4900048;29;20080;-89
2023/04/10 10:26:38;;;;;;;7.03;5.18;;;;;;;14.70;50.07;100914.19;4905175;29;20047;-87
2023/04/10 10:29:12;;;;;;;9.05;5.00;;;;;;;14.70;50.31;100912.34;4915238;29;20091;-84
2023/04/10 10:31:40;;;;;;;9.27;5.40;;;;;;;14.52;51.06;100918.03;4914103;29;20039;-85
2023/04/10 10:34:08;;;;;;;8.20;5.55;;;;;;;14.33;51.87;100907.69;4915001;29;20032;-84
2023/04/10 10:36:35;;;;;;;10.27;5.75;;;;;;;14.28;52.08;100894.72;4923112;29;20051;-84
2023/04/10 10:39:38;;;;;;;11.15;5.80;;;;;;;14.21;52.35;100898.28;4924543;29;20131;-85
2023/04/10 10:42:26;;;;;;;7.80;5.88;;;;;;;13.97;52.44;100873.09;4924949;29;20040;-88
2023/04/10 10:45:11;;;;;;;12.05;6.00;;;;;;;14.15;51.75;100884.47;4932000;29;20103;-86
2023/04/10 10:47:43;;;;;;;9.32;5.43;;;;;;;14.25;51.38;100878.81;4903532;29;20043;-87
2023/04/10 10:50:11;;;;;;;10.15;5.95;;;;;;;14.49;50.46;100880.53;4922916;29;20052;-86
2023/04/10 10:53:09;;;;;;;8.13;5.40;;;;;;;14.68;49.65;100870.22;4904438;29;20073;-88
2023/04/10 10:55:36;;;;;;;8.60;6.05;;;;;;;14.73;48.69;100838.06;4903886;29;20195;-87
2023/04/10 10:58:02;;;;;;;6.80;5.25;;;;;;;15.09;48.11;100856.31;4921055;29;20130;-86
2023/04/10 11:00:50;;;;;;;10.52;5.35;;;;;;;15.43;46.95;100857.63;4922325;29;20158;-86
2023/04/10 11:03:15;;;;;;;8.30;5.35;;;;;;;15.57;46.40;100845.94;4939378;29;20035;-84
2023/04/10 11:05:57;;;;;;;7.47;5.35;;;;;;;15.38;46.80;100858.16;4936211;29;20058;-82
2023/04/10 11:08:34;;;;;;;11.05;5.10;;;;;;;15.32;47.27;100850.81;4935379;29;20032;-85
2023/04/10 11:11:07;;;;;;;10.07;5.60;;;;;;;15.27;47.16;100845.13;4919874;29;20039;-85
2023/04/10 11:13:38;;;;;;;6.93;5.22;;;;;;;15.26;47.36;100844.25;4916463;29;20178;-86
2023/04/10 11:16:05;;;;;;;11.73;6.00;;;;;;;15.32;47.21;100846.22;4912320;29;20539;-82
2023/04/10 11:18:46;;;;;;;11.70;6.22;;;;;;;15.36;46.20;100844.84;4916952;29;20182;-89
2023/04/10 11:21:22;;;;;;;9.25;6.43;;;;;;;15.32;45.93;100804.75;4921548;29;20465;-87
2023/04/10 11:23:53;;;;;;;;;;;;;;;15.55;46.22;100848.00;4900362;29;20484;-87
2023/04/10 11:26:40;;;;;;;9.98;5.90;;;;;;;15.23;47.06;100838.41;4924577;29;19925;-93
2023/04/10 11:29:11;;;;;;;7.97;5.25;;;;;;;14.98;48.33;100841.34;4927987;29;20071;-86
2023/04/10 11:31:45;;;;;;;8.57;4.75;;;;;;;14.83;48.92;100845.94;4922367;29;20043;-83
2023/04/10 11:34:14;;;;;;;12.05;5.53;;;;;;;14.81;49.21;100832.56;4906628;29;20048;-84
2023/04/10 11:36:41;;;;;;;10.02;5.60;;;;;;;14.66;49.71;100851.50;4930693;29;20047;-87
2023/04/10 11:39:12;;;;;;;7.10;5.07;;;;;;;14.66;49.82;100845.25;4888181;29;20112;-88
2023/04/10 11:41:43;;;;;;;7.82;5.10;;;;;;;14.29;50.50;100841.47;4907954;29;20477;-83
2023/04/10 11:44:22;;;;;;;8.70;5.30;;;;;;;14.34;50.89;100844.47;4919854;29;20048;-85
2023/04/10 11:46:51;;;;;;;12.15;5.20;;;;;;;14.07;51.17;100813.38;4926957;29;20040;-86
2023/04/10 11:49:19;;;;;;;8.18;4.90;;;;;;;14.20;51.29;100850.66;4903809;29;20404;-87
2023/04/10 11:51:47;;;;;;;7.18;4.90;;;;;;;14.24;51.29;100841.16;4903651;29;20063;-88
2023/04/10 11:54:19;;;;;;;11.10;5.40;;;;;;;14.19;51.02;100846.25;4910333;29;20055;-92
2023/04/10 11:57:01;;;;;;;7.90;5.22;;;;;;;14.03;51.33;100836.41;4912295;29;20048;-85
2023/04/10 11:59:30;;;;;;;10.27;5.65;;;;;;;14.25;51.23;100834.72;4935733;29;20036;-89
2023/04/10 12:02:15;;;;;;;11.93;5.38;;;;;;;14.23;51.17;100828.66;4901161;29;20138;-91
2023/04/10 12:04:42;;;;;;;9.95;4.90;;;;;;;14.15;51.60;100840.38;4903869;29;20036;-85
2023/04/10 12:07:08;;;;;;;8.82;5.50;;;;;;;13.94;51.57;100830.22;4911883;29;20055;-89
2023/04/10 12:09:34;;;;;;;9.40;5.85;;;;;;;13.85;52.56;100817.78;4919651;29;20111;-87
2023/04/10 12:12:02;;;;;;;8.27;5.25;;;;;;;13.89;52.59;100824.50;4919774;29;20051;-86
2023/04/10 12:14:35;;;;;;;10.90;5.53;;;;;;;13.89;52.24;100802.88;4924412;29;20050;-88
2023/04/10 12:17:04;;;;;;;9.70;5.80;;;;;;;14.02;52.09;100822.03;4921213;29;20043;-90
2023/04/10 12:19:30;;;;;;;10.25;5.90;;;;;;;13.89;52.43;100808.28;4937439;29;20229;-89
2023/04/10 12:21:59;;;;;;;10.80;5.70;;;;;;;14.14;51.63;100807.09;4916623;29;20424;-86
2023/04/10 12:24:57;;;;;;;10.73;6.03;;;;;;;14.38;51.19;100807.09;4913840;29;20146;-90
2023/04/10 12:27:25;;;;;;;13.77;6.05;;;;;;;14.62;50.49;100797.94;4932294;29;20051;-92
2023/04/10 12:29:55;;;;;;;11.55;5.03;;;;;;;14.66;49.71;100783.00;4902809;29;20132;-89
2023/04/10 12:32:27;;;;;;;6.57;5.15;;;;;;;14.56;49.82;100764.31;4909686;29;20040;-91
2023/04/10 12:35:00;;;;;;;9.98;4.82;;;;;;;14.43;50.22;100762.22;4935011;29;20090;-88
2023/04/10 12:37:48;;;;;;;9.43;4.85;;;;;;;14.71;49.90;100775.19;4922383;29;20047;-86
2023/04/10 12:40:15;;;;;;;8.15;4.57;;;;;;;14.78;49.04;100781.53;4916113;29;20123;-82
2023/04/10 12:42:41;;;;;;;7.80;4.80;;;;;;;14.85;48.13;100777.06;4924469;29;20032;-87
2023/04/10 12:45:12;;;;;;;9.00;4.60;;;;;;;14.99;47.47;100773.50;4888532;29;20055;-87
2023/04/10 12:47:50;;;;;;;11.30;4.60;;;;;;;14.98;47.00;100761.00;4901333;29;20057;-87
2023/04/10 12:50:20;;;;;;;7.53;4.80;;;;;;;14.90;47.10;100758.38;4899038;29;20048;-88
2023/04/10 12:53:20;;;;;;;8.75;4.70;;;;;;;14.75;46.81;100741.31;4927693;29;20036;-84
2023/04/10 12:55:57;;;;;;;5.95;4.32;;;;;;;14.77;46.97;100731.13;4909109;29;20051;-85
2023/04/10 12:58:26;;;;;;;8.05;4.45;;;;;;;15.05;46.46;100727.75;4919621;29;20039;-84
2023/04/10 13:00:55;;;;;;;6.35;4.32;;;;;;;15.19;45.67;100754.81;4899693;29;20480;-83
2023/04/10 13:03:21;;;;;;;7.03;4.60;;;;;;;15.24;45.62;100743.44;4928537;29;20116;-86
2023/04/10 13:05:49;;;;;;;7.72;4.53;;;;;;;15.33;45.64;100753.09;4921520;29;20075;-87
2023/04/10 13:08:20;;;;;;;6.65;4.57;;;;;;;15.15;45.74;100729.16;4901099;29;20113;-85
2023/04/10 13:10:49;;;;;;;9.05;4.90;;;;;;;15.06;45.61;100724.03;4929462;29;20051;-86
2023/04/10 13:13:17;;;;;;;7.55;4.00;;;;;;;15.01;45.37;100746.25;4896945;29;20072;-84
2023/04/10 13:15:50;;;;;;;8.80;4.53;;;;;;;14.75;45.84;100730.50;4914292;29;20070;-90
2023/04/10 13:18:16;;;;;;;9.18;4.97;;;;;;;14.71;45.76;100721.88;4909278;29;20068;-87
2023/04/10 13:20:42;;;;;;;7.47;4.30;;;;;;;14.80;45.35;100729.91;4900553;29;20055;-82
2023/04/10 13:23:08;;;;;;;7.03;4.78;;;;;;;14.71;45.28;100716.47;4892644;29;20080;-90
2023/04/10 13:25:39;;;;;;;9.23;4.68;;;;;;;14.68;45.27;100721.41;4904938;29;21621;-89
2023/04/10 13:28:10;;;;;;;9.10;4.65;;;;;;;14.62;44.96;100716.75;4905748;29;20044;-86
2023/04/10 13:30:39;;;;;;;7.13;4.20;;;;;;;14.65;45.12;100721.78;4908362;29;20056;-84
2023/04/10 13:33:06;;;;;;;6.28;4.40;;;;;;;14.79;45.30;100737.19;4891789;29;20066;-84
2023/04/10 13:35:32;;;;;;;7.30;4.25;;;;;;;14.86;45.04;100740.81;4906925;29;20044;-85
2023/04/10 13:37:58;;;;;;;;;;;;;;;14.66;45.23;100745.97;4923123;29;20098;-87
2023/04/10 13:40:29;;;;;;;7.68;4.07;;;;;;;14.62;45.07;100750.06;4908334;29;20013;-90
2023/04/10 13:45:49;;;;;;;6.13;3.83;;;;;;;14.41;45.37;100739.94;4925732;29;20058;-93
2023/04/10 13:48:19;;;;;;;5.13;3.60;;;;;;;14.18;45.06;100722.91;4895198;29;20138;-89
2023/04/10 13:50:47;;;;;;;8.05;3.92;;;;;;;13.97;45.56;100719.03;4926664;29;20051;-90
2023/04/10 13:53:18;;;;;;;5.15;3.58;;;;;;;13.86;45.28;100705.94;4935431;29;20051;-92
2023/04/10 13:58:25;;;;;;;8.25;3.90;;;;;;;14.08;45.10;100704.25;4966670;23;20059;-92
2023/04/10 14:01:13;;;;;;;5.78;4.10;;;;;;;14.06;45.19;100706.28;4950300;29;20071;-92
2023/04/10 14:07:03;;;;;;;7.07;4.13;;;;;;;14.22;44.54;100710.72;5023247;23;20059;-89
2023/04/10 14:10:31;;;;;;;9.65;4.00;;;;;;;14.09;45.34;100704.06;4949000;28;20083;-87
2023/04/10 14:13:05;;;;;;;8.00;3.97;;;;;;;14.17;45.39;100713.97;4919221;28;20075;-91
2023/04/10 14:15:34;;;;;;;5.60;4.03;;;;;;;13.95;45.62;100683.22;4943665;28;20052;-91
2023/04/10 14:18:04;;;;;;;6.00;3.80;;;;;;;14.01;45.86;100714.94;4916795;29;20039;-88
2023/04/10 14:20:30;;;;;;;5.32;3.90;;;;;;;13.92;46.06;100718.75;4952027;28;20040;-90
2023/04/10 14:22:57;;;;;;;6.15;4.10;;;;;;;14.01;45.94;100717.66;4956402;29;20050;-88
2023/04/10 14:25:28;;;;;;;6.95;3.95;;;;;;;13.88;46.36;100714.72;4932147;28;20099;-94
2023/04/10 14:28:20;;;;;;;5.78;3.80;;;;;;;13.92;46.53;100716.03;4940071;29;20060;-91
2023/04/10 14:30:50;;;;;;;7.50;4.03;;;;;;;13.81;46.74;100714.59;4926483;29;20118;-92
2023/04/10 14:33:19;;;;;;;8.23;4.07;;;;;;;13.78;47.03;100714.97;4906311;29;20051;-89
2023/04/10 14:35:47;;;;;;;7.07;3.80;;;;;;;13.65;46.82;100693.09;4908252;29;20036;-89
2023/04/10 14:38:14;;;;;;;8.85;4.22;;;;;;;13.77;47.08;100712.47;4907671;29;20135;-87
2023/04/10 14:40:40;;;;;;;9.38;4.22;;;;;;;13.76;46.98;100697.25;4931939;29;20081;-83
2023/04/10 14:43:08;;;;;;;6.70;4.28;;;;;;;13.71;47.17;100687.81;4925684;29;20043;-86
2023/04/10 14:45:34;;;;;;;7.10;4.40;;;;;;;13.73;47.23;100696.59;4896601;29;20075;-82
2023/04/10 14:48:03;;;;;;;9.10;4.43;;;;;;;13.84;47.10;100711.53;4926031;29;20047;-92
2023/04/10 14:50:32;;;;;;;4.78;3.63;;;;;;;13.77;47.40;100704.34;4917561;29;20050;-88
2023/04/10 14:53:01;;;;;;;5.97;4.18;;;;;;;13.75;47.38;100700.97;4935061;29;20065;-90
2023/04/10 14:55:30;;;;;;;6.82;4.03;;;;;;;13.69;47.84;100700.66;4932614;29;20089;-89
2023/04/10 14:57:57;;;;;;;7.18;4.00;;;;;;;13.53;48.23;100698.06;4893815;29;20052;-91
2023/04/10 15:00:30;;;;;;;5.55;3.70;;;;;;;13.54;48.69;100707.03;4909675;29;20048;-87
2023/04/10 15:03:08;;;;;;;6.03;4.00;;;;;;;13.49;48.84;100704.88;4920403;29;20075;-90
2023/04/10 15:05:35;;;;;;;10.30;6.32;;;;;;;13.50;48.99;100698.44;4908200;29;20178;-88
2023/04/10 15:08:03;;;;;;;6.47;4.00;;;;;;;13.40;49.48;100700.53;4913199;29;20050;-90
2023/04/10 15:10:29;;;;;;;6.10;3.90;;;;;;;13.29;49.77;100699.91;4923427;29;20507;-90
2023/04/10 15:12:56;;;;;;;7.40;3.85;;;;;;;13.19;50.08;100701.97;4906534;29;20062;-90
2023/04/10 15:15:26;;;;;;;6.47;4.30;;;;;;;13.13;50.60;100689.19;4913792;29;20151;-85
2023/04/10 15:17:56;;;;;;;7.65;4.40;;;;;;;13.14;50.53;100696.28;4886172;29;20055;-88
2023/04/10 15:20:23;;;;;;;6.35;4.20;;;;;;;13.04;50.47;100682.13;4923052;29;20036;-89
2023/04/10 15:22:49;;;;;;;7.60;3.90;;;;;;;13.01;50.71;100701.38;4883488;29;20161;-84
2023/04/10 15:25:15;;;;;;;11.30;4.30;;;;;;;13.03;50.89;100702.88;4891095;29;20055;-87
2023/04/10 15:27:43;;;;;;;7.18;4.20;;;;;;;13.13;50.64;100701.84;4897225;29;20135;-86
2023/04/10 15:30:09;;;;;;;8.32;4.18;;;;;;;12.98;50.55;100681.00;4933957;28;20031;-90
2023/04/10 15:32:42;;;;;;;7.25;4.68;;;;;;;13.01;50.94;100702.22;4906660;28;20098;-95
2023/04/10 15:35:14;;;;;;;7.13;4.40;;;;;;;12.88;51.35;100693.88;4928410;28;20023;-90
2023/04/10 15:37:46;;;;;;;7.40;4.20;;;;;;;12.73;51.88;100682.13;4927986;29;20150;-90
2023/04/10 15:40:15;;;;;;;6.72;4.60;;;;;;;12.63;52.13;100672.38;4923789;29;20075;-86
2023/04/10 15:42:44;;;;;;;7.43;4.43;;;;;;;12.74;52.17;100694.59;4897704;29;20070;-89
2023/04/10 15:45:18;;;;;;;11.02;5.20;;;;;;;12.77;51.92;100678.91;4921041;29;20054;-89
2023/04/10 15:47:46;;;;;;;9.57;5.23;;;;;;;12.75;51.89;100670.13;4923560;29;20071;-87
2023/04/10 15:50:18;;;;;;;5.65;4.00;;;;;;;12.71;52.07;100676.88;4891579;29;20515;-88
2023/04/10 15:52:46;;;;;;;6.88;3.80;;;;;;;12.83;52.11;100696.22;4922304;29;20080;-90
2023/04/10 15:55:17;;;;;;;6.82;4.18;;;;;;;12.59;52.61;100670.19;4914023;29;20039;-92
2023/04/10 15:57:45;;;;;;;8.82;4.07;;;;;;;12.51;52.28;100659.44;4899186;29;20054;-93
2023/04/10 16:00:14;;;;;;;6.93;3.80;;;;;;;12.57;52.58;100683.88;4926034;29;20055;-86
2023/04/10 16:02:40;;;;;;;5.97;3.72;;;;;;;12.53;52.90;100693.31;4882513;29;20053;-88
2023/04/10 16:05:08;;;;;;;6.10;3.58;;;;;;;12.28;52.68;100681.75;4915656;29;20158;-92
2023/04/10 16:07:39;;;;;;;5.68;4.18;;;;;;;12.20;52.77;100657.50;4895502;29;20059;-84
2023/04/10 16:10:08;;;;;;;5.68;3.95;;;;;;;12.31;53.20;100684.06;4939440;28;20052;-94
2023/04/10 16:12:44;;;;;;;5.75;3.75;;;;;;;12.35;53.53;100690.81;4923765;28;20050;-93
2023/04/10 16:15:11;;;;;;;6.45;4.22;;;;;;;12.19;53.87;100677.38;4919513;29;20062;-89
2023/04/10 16:17:37;;;;;;;10.57;5.00;;;;;;;12.24;53.97;100673.16;4901758;29;20139;-87
2023/04/10 16:20:06;;;;;;;7.82;4.25;;;;;;;12.23;54.01;100659.84;4906946;29;20085;-83
2023/04/10 16:22:32;;;;;;;6.57;4.07;;;;;;;12.19;54.17;100669.28;4900747;29;20046;-86
2023/04/10 16:24:58;;;;;;;6.80;3.80;;;;;;;12.14;54.17;100656.31;4913085;29;20043;-82
2023/04/10 16:27:23;;;;;;;;;;;;;;;12.23;54.30;100676.03;4895360;29;20090;-88
2023/04/10 16:29:52;;;;;;;7.13;4.28;;;;;;;12.12;54.36;100662.91;4900294;29;19970;-86
2023/04/10 16:32:20;;;;;;;8.90;4.70;;;;;;;11.98;54.77;100646.41;4915650;29;20041;-85
2023/04/10 16:34:49;;;;;;;9.55;4.70;;;;;;;12.06;54.93;100652.78;4930611;29;20481;-83
2023/04/10 16:37:20;;;;;;;9.15;5.10;;;;;;;12.08;54.78;100654.34;4932370;29;20425;-90
2023/04/10 16:39:45;;;;;;;6.90;4.70;;;;;;;12.04;54.90;100645.72;4897813;29;20141;-83
2023/04/10 16:42:12;;;;;;;10.35;5.20;;;;;;;11.97;55.13;100623.19;4931843;29;20060;-86
2023/04/10 16:44:40;;;;;;;10.65;5.40;;;;;;;12.07;55.17;100643.72;4898644;29;20052;-84
2023/04/10 16:47:07;;;;;;;6.30;4.53;;;;;;;11.90;55.71;100651.81;4934842;29;20122;-83
2023/04/10 16:49:32;;;;;;;10.80;5.70;;;;;;;11.87;55.69;100640.50;4915893;29;20050;-86
2023/04/10 16:51:59;;;;;;;8.73;4.50;;;;;;;11.73;55.59;100624.03;4912538;29;20048;-88
2023/04/10 16:54:25;;;;;;;12.05;5.18;;;;;;;11.82;55.49;100635.63;4914826;29;20500;-89
2023/04/10 16:56:55;;;;;;;6.53;4.47;;;;;;;11.92;54.95;100644.41;4931843;29;20127;-89
2023/04/10 16:59:22;;;;;;;8.85;4.60;;;;;;;11.85;55.01;100635.28;4916933;29;20551;-91
2023/04/10 17:01:52;;;;;;;7.88;4.57;;;;;;;11.85;55.36;100640.69;4916461;29;20119;-83
2023/04/10 17:04:18;;;;;;;11.10;4.97;;;;;;;11.91;55.11;100648.09;4906588;29;20058;-83
2023/04/10 17:06:44;;;;;;;9.32;4.88;;;;;;;11.89;54.89;100625.88;4930228;29;20036;-81
2023/04/10 17:09:10;;;;;;;;;;;;;;;11.85;55.24;100640.69;4910665;29;20450;-84
2023/04/10 17:11:37;;;;;;;6.93;4.50;;;;;;;11.72;55.29;100624.19;4930821;29;19911;-82
2023/04/10 17:14:06;;;;;;;7.18;4.93;;;;;;;11.94;55.11;100641.53;4914867;29;20038;-83
2023/04/10 17:16:31;;;;;;;8.57;4.88;;;;;;;11.87;55.25;100644.09;4899242;29;20047;-83
2023/04/10 17:19:04;;;;;;;9.85;4.82;;;;;;;11.72;55.50;100616.94;4897244;29;20428;-83
2023/04/10 17:21:30;;;;;;;9.00;4.90;;;;;;;11.84;56.10;100638.97;4932239;29;20130;-84
2023/04/10 17:23:56;;;;;;;6.80;4.68;;;;;;;11.79;56.04;100633.28;4886168;29;20256;-89
2023/04/10 17:26:23;;;;;;;10.10;4.93;;;;;;;11.75;56.03;100629.22;4923021;29;20039;-87
2023/04/10 17:28:50;;;;;;;8.27;4.85;;;;;;;11.83;56.30;100634.63;4934809;29;20048;-85
2023/04/10 17:31:25;;;;;;;6.95;4.60;;;;;;;11.74;55.85;100627.56;4915945;29;20390;-84
2023/04/10 17:33:52;;;;;;;7.53;4.20;;;;;;;11.85;55.65;100629.91;4934070;29;20044;-86
2023/04/10 17:36:18;;;;;;;7.30;4.45;;;;;;;11.60;56.65;100616.44;4912315;29;20497;-83
2023/04/10 17:38:45;;;;;;;6.78;4.50;;;;;;;11.83;56.13;100632.75;4906066;29;20063;-86
2023/04/10 17:41:15;;;;;;;8.35;4.10;;;;;;;11.86;56.19;100638.81;4909685;29;20052;-87
2023/04/10 17:43:42;;;;;;;6.90;4.38;;;;;;;11.72;56.65;100621.50;4936874;29;20043;-86
2023/04/10 17:46:12;;;;;;;6.40;4.43;;;;;;;11.76;56.56;100639.84;4930615;29;20457;-86
2023/04/10 17:48:38;;;;;;;6.78;4.15;;;;;;;11.78;56.71;100642.38;4903572;29;20587;-86
2023/04/10 17:51:07;;;;;;;6.97;4.30;;;;;;;11.80;56.40;100640.34;4912196;29;20090;-87
2023/04/10 17:53:34;;;;;;;7.78;4.75;;;;;;;11.83;56.50;100637.31;4925685;29;20079;-85
2023/04/10 17:56:00;;;;;;;10.65;5.18;;;;;;;11.66;56.85;100611.38;4899452;29;20397;-87
2023/04/10 17:58:26;;;;;;;9.20;5.38;;;;;;;11.80;56.90;100633.09;4923480;29;20054;-86
2023/04/10 18:00:53;;;;;;;11.65;5.50;;;;;;;11.78;57.41;100635.13;4910944;29;20461;-87
2023/04/10 18:03:19;;;;;;;11.57;5.65;;;;;;;11.78;57.15;100629.75;4918404;29;20111;-87
2023/04/10 18:05:47;;;;;;;8.40;4.78;;;;;;;11.64;58.09;100629.59;4929601;29;20137;-91
2023/04/10 18:08:16;;;;;;;10.07;4.88;;;;;;;11.54;58.28;100633.28;4910760;29;20052;-86
2023/04/10 18:10:48;;;;;;;7.63;4.45;;;;;;;11.53;58.48;100636.13;4915097;29;20043;-87
2023/04/10 18:13:15;;;;;;;7.70;5.10;;;;;;;11.41;58.83;100624.84;4938772;29;20036;-87
2023/04/10 18:15:44;;;;;;;10.07;5.20;;;;;;;11.40;58.37;100620.47;4901400;29;20052;-85
2023/04/10 18:18:12;;;;;;;7.13;4.70;;;;;;;11.60;58.08;100629.91;4928787;29;20557;-86
2023/04/10 18:20:41;;;;;;;10.98;5.20;;;;;;;11.49;58.10;100619.47;4924024;29;20039;-87
2023/04/10 18:23:15;;;;;;;8.45;4.80;;;;;;;11.52;58.90;100624.53;4921408;29;20047;-89